Gran Canaria - Aeropuerto en Canarias

latitud = 27° 55' 4''N | longitud = 015° 23' 43''W
32 metros sobre el nivel del mar |

Fecha, hora, temperatura, viento dirección y velocidad, humedad y presión.

  • 14-10-2018 18:00:00 | 24.50°C | Norte |33.00 km/h | 79.00% | 1010.10 hPa
  • 14-10-2018 15:00:00 | 26.70°C | Norte |24.00 km/h | 66.00% | 1010.00 hPa
  • 14-10-2018 14:00:00 | 27.00°C | Nordeste |37.00 km/h | 65.00% | 1010.70 hPa
  • 14-10-2018 13:00:00 | 26.50°C | Nordeste |33.00 km/h | 69.00% | 1011.10 hPa
  • 14-10-2018 12:00:00 | 26.40°C | Nordeste |30.00 km/h | 64.00% | 1011.40 hPa
  • 14-10-2018 11:00:00 | 25.40°C | Norte |29.00 km/h | 70.00% | 1011.20 hPa
  • 14-10-2018 10:00:00 | 24.60°C | Norte |25.00 km/h | 70.00% | 1010.70 hPa
  • 14-10-2018 09:00:00 | 22.80°C | Norte |16.00 km/h | 82.00% | 1010.50 hPa
  • 14-10-2018 08:00:00 | 22.10°C | Norte |11.00 km/h | 81.00% | 1010.20 hPa
  • 14-10-2018 07:00:00 | 22.30°C | Norte |14.00 km/h | 80.00% | 1010.00 hPa
  • 14-10-2018 06:00:00 | 22.20°C | Norte |12.00 km/h | 87.00% | 1010.10 hPa
  • 14-10-2018 05:00:00 | 22.50°C | Norte |12.00 km/h | 83.00% | 1010.10 hPa
  • 14-10-2018 04:00:00 | 22.60°C | Norte |14.00 km/h | 82.00% | 1010.20 hPa
  • 14-10-2018 03:00:00 | 21.80°C | Norte |7.00 km/h | 82.00% | 1010.70 hPa
  • 14-10-2018 02:00:00 | 21.90°C | Oeste |5.00 km/h | 76.00% | 1010.90 hPa
  • 14-10-2018 01:00:00 | 22.00°C | Calma |0.00 km/h | 77.00% | 1011.30 hPa
  • 14-10-2018 00:00:00 | 22.10°C | Oeste |5.00 km/h | 76.00% | 1011.60 hPa
  • 13-10-2018 23:00:00 | 22.40°C | Oeste |3.00 km/h | 74.00% | 1011.80 hPa
  • 13-10-2018 22:00:00 | 22.60°C | Sur |4.00 km/h | 75.00% | 1011.40 hPa
  • 13-10-2018 21:00:00 | 23.10°C | Este |4.00 km/h | 74.00% | 1011.10 hPa
  • 13-10-2018 20:00:00 | 23.60°C | Sur |7.00 km/h | 73.00% | 1010.70 hPa
  • 13-10-2018 19:00:00 | 24.40°C | Sudeste |12.00 km/h | 69.00% | 1010.40 hPa
  • 13-10-2018 18:00:00 | 25.00°C | Sudeste |10.00 km/h | 66.00% | 1010.60 hPa
  • 13-10-2018 16:00:00 | 25.30°C | Sudeste |13.00 km/h | 64.00% | 1011.30 hPa